Terminal Aerodrome Forecast
Issued by NWS Sioux Falls, SD

Home | Current Version | Previous Version | Text Only | Print | Product List | Glossary On
Versions: 1 2 3 4 5 6 7 8 9 10 11 12 13 14 15 16 17 18 19 20 21 22 23
000
FTUS43 KFSD 241133
TAFSUX
TAF
KSUX 241133Z 2412/2512 VRB02KT P6SM SCT140
     FM241500 VRB03KT P6SM BKN100
     FM242000 01009KT P6SM VCSH OVC080
     FM242200 01010KT P6SM -SHRA SCT050 OVC070
     FM250600 01007KT P6SM BKN060=

USA.gov is the U.S. government's official web portal to all federal, state and local government web resources and services.